sensor_id;sensor_type;location;lat;lon;timestamp;P1;durP1;ratioP1;P2;durP2;ratioP2
73276;SDS011;61501;43.316;5.372;2022-11-03T00:01:37;7.50;;;3.85;;
73276;SDS011;61501;43.316;5.372;2022-11-03T00:04:05;5.45;;;3.53;;
73276;SDS011;61501;43.316;5.372;2022-11-03T00:06:33;6.25;;;3.70;;
73276;SDS011;61501;43.316;5.372;2022-11-03T00:09:00;6.55;;;3.28;;
73276;SDS011;61501;43.316;5.372;2022-11-03T00:11:27;4.45;;;3.30;;
73276;SDS011;61501;43.316;5.372;2022-11-03T00:13:53;6.82;;;3.30;;
73276;SDS011;61501;43.316;5.372;2022-11-03T00:16:19;6.55;;;3.67;;
73276;SDS011;61501;43.316;5.372;2022-11-03T00:18:44;7.95;;;3.20;;
73276;SDS011;61501;43.316;5.372;2022-11-03T00:21:11;5.40;;;3.10;;
73276;SDS011;61501;43.316;5.372;2022-11-03T00:23:41;6.78;;;3.30;;
73276;SDS011;61501;43.316;5.372;2022-11-03T00:26:15;5.40;;;3.20;;
73276;SDS011;61501;43.316;5.372;2022-11-03T00:28:46;6.47;;;3.25;;
73276;SDS011;61501;43.316;5.372;2022-11-03T00:31:14;5.97;;;3.05;;
73276;SDS011;61501;43.316;5.372;2022-11-03T00:33:41;6.05;;;3.10;;
73276;SDS011;61501;43.316;5.372;2022-11-03T00:36:09;7.97;;;3.13;;
73276;SDS011;61501;43.316;5.372;2022-11-03T00:38:37;5.03;;;2.83;;
73276;SDS011;61501;43.316;5.372;2022-11-03T00:41:04;5.68;;;3.17;;
73276;SDS011;61501;43.316;5.372;2022-11-03T00:43:31;6.53;;;3.03;;
73276;SDS011;61501;43.316;5.372;2022-11-03T00:45:57;25.15;;;22.58;;
73276;SDS011;61501;43.316;5.372;2022-11-03T00:48:24;16.33;;;14.73;;
73276;SDS011;61501;43.316;5.372;2022-11-03T00:50:59;43.38;;;39.80;;
73276;SDS011;61501;43.316;5.372;2022-11-03T00:53:33;9.50;;;8.57;;
73276;SDS011;61501;43.316;5.372;2022-11-03T00:56:04;6.50;;;3.45;;
73276;SDS011;61501;43.316;5.372;2022-11-03T00:58:31;8.65;;;4.03;;
73276;SDS011;61501;43.316;5.372;2022-11-03T01:00:58;4.32;;;3.15;;
73276;SDS011;61501;43.316;5.372;2022-11-03T01:03:28;6.20;;;3.80;;
73276;SDS011;61501;43.316;5.372;2022-11-03T01:05:55;6.82;;;3.25;;
73276;SDS011;61501;43.316;5.372;2022-11-03T01:08:39;5.63;;;2.95;;
73276;SDS011;61501;43.316;5.372;2022-11-03T01:13:59;5.65;;;2.63;;
73276;SDS011;61501;43.316;5.372;2022-11-03T01:16:25;5.68;;;2.88;;
73276;SDS011;61501;43.316;5.372;2022-11-03T01:18:53;5.90;;;2.30;;
73276;SDS011;61501;43.316;5.372;2022-11-03T01:21:19;3.35;;;2.30;;
73276;SDS011;61501;43.316;5.372;2022-11-03T01:23:44;5.80;;;2.58;;
73276;SDS011;61501;43.316;5.372;2022-11-03T01:26:11;5.40;;;2.38;;
73276;SDS011;61501;43.316;5.372;2022-11-03T01:28:38;5.68;;;2.35;;
73276;SDS011;61501;43.316;5.372;2022-11-03T01:31:09;3.72;;;2.10;;
73276;SDS011;61501;43.316;5.372;2022-11-03T01:33:39;5.22;;;2.05;;
73276;SDS011;61501;43.316;5.372;2022-11-03T01:36:06;4.05;;;1.80;;
73276;SDS011;61501;43.316;5.372;2022-11-03T01:38:32;4.60;;;2.00;;
73276;SDS011;61501;43.316;5.372;2022-11-03T01:41:00;4.63;;;2.30;;
73276;SDS011;61501;43.316;5.372;2022-11-03T01:43:27;5.47;;;2.25;;
73276;SDS011;61501;43.316;5.372;2022-11-03T01:48:29;4.10;;;2.00;;
73276;SDS011;61501;43.316;5.372;2022-11-03T01:50:56;7.03;;;2.17;;
73276;SDS011;61501;43.316;5.372;2022-11-03T01:53:22;3.97;;;2.00;;
73276;SDS011;61501;43.316;5.372;2022-11-03T01:55:48;4.28;;;1.80;;
73276;SDS011;61501;43.316;5.372;2022-11-03T01:58:16;5.95;;;2.03;;
73276;SDS011;61501;43.316;5.372;2022-11-03T02:00:47;4.05;;;2.30;;
73276;SDS011;61501;43.316;5.372;2022-11-03T02:03:15;3.60;;;2.28;;
73276;SDS011;61501;43.316;5.372;2022-11-03T02:05:42;4.55;;;2.10;;
73276;SDS011;61501;43.316;5.372;2022-11-03T02:08:14;4.80;;;1.80;;
73276;SDS011;61501;43.316;5.372;2022-11-03T02:11:02;4.78;;;1.92;;
73276;SDS011;61501;43.316;5.372;2022-11-03T02:13:47;4.25;;;1.90;;
73276;SDS011;61501;43.316;5.372;2022-11-03T02:16:13;5.47;;;2.38;;
73276;SDS011;61501;43.316;5.372;2022-11-03T02:18:39;4.93;;;2.25;;
73276;SDS011;61501;43.316;5.372;2022-11-03T02:26:16;5.20;;;2.00;;
73276;SDS011;61501;43.316;5.372;2022-11-03T02:28:41;5.30;;;2.10;;
73276;SDS011;61501;43.316;5.372;2022-11-03T02:34:13;3.72;;;1.70;;
73276;SDS011;61501;43.316;5.372;2022-11-03T02:36:54;4.30;;;1.60;;
73276;SDS011;61501;43.316;5.372;2022-11-03T02:39:27;3.38;;;1.80;;
73276;SDS011;61501;43.316;5.372;2022-11-03T02:42:00;3.42;;;1.90;;
73276;SDS011;61501;43.316;5.372;2022-11-03T02:44:28;4.03;;;2.10;;
73276;SDS011;61501;43.316;5.372;2022-11-03T02:46:59;4.13;;;2.00;;
73276;SDS011;61501;43.316;5.372;2022-11-03T02:49:28;3.50;;;1.80;;
73276;SDS011;61501;43.316;5.372;2022-11-03T02:51:58;4.07;;;1.98;;
73276;SDS011;61501;43.316;5.372;2022-11-03T02:54:24;3.58;;;1.80;;
73276;SDS011;61501;43.316;5.372;2022-11-03T02:57:00;2.75;;;1.85;;
73276;SDS011;61501;43.316;5.372;2022-11-03T02:59:41;4.68;;;2.00;;
73276;SDS011;61501;43.316;5.372;2022-11-03T03:04:40;4.32;;;2.10;;
73276;SDS011;61501;43.316;5.372;2022-11-03T03:07:12;4.22;;;1.98;;
73276;SDS011;61501;43.316;5.372;2022-11-03T03:09:44;3.75;;;2.25;;
73276;SDS011;61501;43.316;5.372;2022-11-03T03:12:22;3.30;;;1.77;;
73276;SDS011;61501;43.316;5.372;2022-11-03T03:14:49;4.55;;;2.03;;
73276;SDS011;61501;43.316;5.372;2022-11-03T03:20:19;2.80;;;1.60;;
73276;SDS011;61501;43.316;5.372;2022-11-03T03:22:46;5.80;;;2.00;;
73276;SDS011;61501;43.316;5.372;2022-11-03T03:25:21;3.70;;;1.90;;
73276;SDS011;61501;43.316;5.372;2022-11-03T03:28:18;3.90;;;2.08;;
73276;SDS011;61501;43.316;5.372;2022-11-03T03:30:52;4.07;;;2.10;;
73276;SDS011;61501;43.316;5.372;2022-11-03T03:33:20;4.38;;;1.88;;
73276;SDS011;61501;43.316;5.372;2022-11-03T03:35:48;3.28;;;2.05;;
73276;SDS011;61501;43.316;5.372;2022-11-03T03:38:22;4.22;;;2.33;;
73276;SDS011;61501;43.316;5.372;2022-11-03T03:40:54;3.08;;;1.88;;
73276;SDS011;61501;43.316;5.372;2022-11-03T03:43:21;5.32;;;1.90;;
73276;SDS011;61501;43.316;5.372;2022-11-03T03:45:50;3.58;;;1.88;;
73276;SDS011;61501;43.316;5.372;2022-11-03T03:48:18;4.07;;;1.48;;
73276;SDS011;61501;43.316;5.372;2022-11-03T03:50:45;3.50;;;1.80;;
73276;SDS011;61501;43.316;5.372;2022-11-03T03:53:13;2.78;;;1.67;;
73276;SDS011;61501;43.316;5.372;2022-11-03T03:55:42;3.85;;;1.92;;
73276;SDS011;61501;43.316;5.372;2022-11-03T03:58:11;3.90;;;1.92;;
73276;SDS011;61501;43.316;5.372;2022-11-03T04:00:38;3.42;;;1.80;;
73276;SDS011;61501;43.316;5.372;2022-11-03T04:03:05;4.47;;;1.80;;
73276;SDS011;61501;43.316;5.372;2022-11-03T04:05:33;5.20;;;2.15;;
73276;SDS011;61501;43.316;5.372;2022-11-03T04:07:59;3.92;;;1.65;;
73276;SDS011;61501;43.316;5.372;2022-11-03T04:10:24;3.85;;;1.90;;
73276;SDS011;61501;43.316;5.372;2022-11-03T04:12:50;3.67;;;1.50;;
73276;SDS011;61501;43.316;5.372;2022-11-03T04:15:34;2.53;;;1.52;;
73276;SDS011;61501;43.316;5.372;2022-11-03T04:18:19;5.25;;;1.83;;
73276;SDS011;61501;43.316;5.372;2022-11-03T04:21:04;2.60;;;1.67;;
73276;SDS011;61501;43.316;5.372;2022-11-03T04:23:49;2.80;;;1.70;;
73276;SDS011;61501;43.316;5.372;2022-11-03T04:26:16;4.40;;;1.90;;
73276;SDS011;61501;43.316;5.372;2022-11-03T04:28:43;3.83;;;2.00;;
73276;SDS011;61501;43.316;5.372;2022-11-03T04:31:12;4.22;;;1.70;;
73276;SDS011;61501;43.316;5.372;2022-11-03T04:33:40;4.03;;;2.13;;
73276;SDS011;61501;43.316;5.372;2022-11-03T04:36:19;4.10;;;1.88;;
73276;SDS011;61501;43.316;5.372;2022-11-03T04:38:45;4.53;;;1.88;;
73276;SDS011;61501;43.316;5.372;2022-11-03T04:41:17;4.50;;;1.67;;
73276;SDS011;61501;43.316;5.372;2022-11-03T04:43:49;5.93;;;1.80;;
73276;SDS011;61501;43.316;5.372;2022-11-03T04:46:17;5.45;;;2.03;;
73276;SDS011;61501;43.316;5.372;2022-11-03T04:48:56;4.30;;;2.00;;
73276;SDS011;61501;43.316;5.372;2022-11-03T04:51:25;3.17;;;1.80;;
73276;SDS011;61501;43.316;5.372;2022-11-03T04:53:54;4.40;;;1.90;;
73276;SDS011;61501;43.316;5.372;2022-11-03T04:56:23;5.15;;;2.50;;
73276;SDS011;61501;43.316;5.372;2022-11-03T04:58:50;5.20;;;2.17;;
73276;SDS011;61501;43.316;5.372;2022-11-03T05:01:17;4.28;;;2.10;;
73276;SDS011;61501;43.316;5.372;2022-11-03T05:03:46;7.72;;;2.08;;
73276;SDS011;61501;43.316;5.372;2022-11-03T05:06:15;5.72;;;2.03;;
73276;SDS011;61501;43.316;5.372;2022-11-03T05:08:44;5.40;;;2.40;;
73276;SDS011;61501;43.316;5.372;2022-11-03T05:11:16;4.10;;;2.30;;
73276;SDS011;61501;43.316;5.372;2022-11-03T05:13:45;3.13;;;1.98;;
73276;SDS011;61501;43.316;5.372;2022-11-03T05:16:11;3.92;;;2.33;;
73276;SDS011;61501;43.316;5.372;2022-11-03T05:18:38;4.55;;;2.25;;
73276;SDS011;61501;43.316;5.372;2022-11-03T05:21:08;4.45;;;2.35;;
73276;SDS011;61501;43.316;5.372;2022-11-03T05:23:40;3.58;;;2.03;;
73276;SDS011;61501;43.316;5.372;2022-11-03T05:29:11;4.68;;;2.30;;
73276;SDS011;61501;43.316;5.372;2022-11-03T05:31:50;4.05;;;2.33;;
73276;SDS011;61501;43.316;5.372;2022-11-03T05:36:59;4.40;;;2.50;;
73276;SDS011;61501;43.316;5.372;2022-11-03T05:39:35;5.38;;;2.30;;
73276;SDS011;61501;43.316;5.372;2022-11-03T05:42:50;3.63;;;2.28;;
73276;SDS011;61501;43.316;5.372;2022-11-03T05:45:02;6.85;;;2.08;;
73276;SDS011;61501;43.316;5.372;2022-11-03T05:47:37;4.45;;;2.35;;
73276;SDS011;61501;43.316;5.372;2022-11-03T05:50:15;3.78;;;2.20;;
73276;SDS011;61501;43.316;5.372;2022-11-03T05:52:44;5.03;;;2.08;;
73276;SDS011;61501;43.316;5.372;2022-11-03T05:55:20;4.05;;;2.53;;
73276;SDS011;61501;43.316;5.372;2022-11-03T05:57:56;4.18;;;2.35;;
73276;SDS011;61501;43.316;5.372;2022-11-03T06:00:27;4.18;;;2.20;;
73276;SDS011;61501;43.316;5.372;2022-11-03T06:02:58;3.88;;;2.40;;
73276;SDS011;61501;43.316;5.372;2022-11-03T06:05:24;3.35;;;2.20;;
73276;SDS011;61501;43.316;5.372;2022-11-03T06:07:55;5.07;;;2.50;;
73276;SDS011;61501;43.316;5.372;2022-11-03T06:12:49;4.72;;;2.88;;
73276;SDS011;61501;43.316;5.372;2022-11-03T06:15:31;3.58;;;2.28;;
73276;SDS011;61501;43.316;5.372;2022-11-03T06:17:59;4.35;;;2.25;;
73276;SDS011;61501;43.316;5.372;2022-11-03T06:20:34;6.53;;;2.20;;
73276;SDS011;61501;43.316;5.372;2022-11-03T06:23:00;4.85;;;2.50;;
73276;SDS011;61501;43.316;5.372;2022-11-03T06:25:34;4.10;;;2.20;;
73276;SDS011;61501;43.316;5.372;2022-11-03T06:28:02;6.20;;;2.50;;
73276;SDS011;61501;43.316;5.372;2022-11-03T06:30:33;3.10;;;1.73;;
73276;SDS011;61501;43.316;5.372;2022-11-03T06:33:11;4.50;;;1.83;;
73276;SDS011;61501;43.316;5.372;2022-11-03T06:35:58;3.97;;;2.30;;
73276;SDS011;61501;43.316;5.372;2022-11-03T06:38:29;4.22;;;2.00;;
73276;SDS011;61501;43.316;5.372;2022-11-03T06:40:58;3.35;;;2.10;;
73276;SDS011;61501;43.316;5.372;2022-11-03T06:43:25;5.00;;;1.88;;
73276;SDS011;61501;43.316;5.372;2022-11-03T06:46:01;5.20;;;2.22;;
73276;SDS011;61501;43.316;5.372;2022-11-03T06:48:36;3.10;;;1.92;;
73276;SDS011;61501;43.316;5.372;2022-11-03T06:51:12;4.95;;;1.95;;
73276;SDS011;61501;43.316;5.372;2022-11-03T06:53:40;4.85;;;1.90;;
73276;SDS011;61501;43.316;5.372;2022-11-03T06:56:08;5.38;;;1.80;;
73276;SDS011;61501;43.316;5.372;2022-11-03T06:58:39;4.03;;;2.28;;
73276;SDS011;61501;43.316;5.372;2022-11-03T07:01:13;3.35;;;2.20;;
73276;SDS011;61501;43.316;5.372;2022-11-03T07:03:40;3.92;;;2.25;;
73276;SDS011;61501;43.316;5.372;2022-11-03T07:08:36;5.22;;;2.58;;
73276;SDS011;61501;43.316;5.372;2022-11-03T07:13:42;5.68;;;2.60;;
73276;SDS011;61501;43.316;5.372;2022-11-03T07:18:53;4.10;;;2.22;;
73276;SDS011;61501;43.316;5.372;2022-11-03T07:24:03;5.45;;;2.80;;
73276;SDS011;61501;43.316;5.372;2022-11-03T07:26:37;5.97;;;2.95;;
73276;SDS011;61501;43.316;5.372;2022-11-03T07:29:02;4.93;;;2.53;;
73276;SDS011;61501;43.316;5.372;2022-11-03T07:31:28;7.93;;;2.63;;
73276;SDS011;61501;43.316;5.372;2022-11-03T07:33:56;5.65;;;2.72;;
73276;SDS011;61501;43.316;5.372;2022-11-03T07:36:23;4.82;;;2.90;;
73276;SDS011;61501;43.316;5.372;2022-11-03T07:38:51;9.93;;;3.60;;
73276;SDS011;61501;43.316;5.372;2022-11-03T07:41:19;5.38;;;2.70;;
73276;SDS011;61501;43.316;5.372;2022-11-03T07:43:55;4.75;;;2.50;;
73276;SDS011;61501;43.316;5.372;2022-11-03T07:46:22;6.38;;;2.92;;
73276;SDS011;61501;43.316;5.372;2022-11-03T07:48:53;17.08;;;4.07;;
73276;SDS011;61501;43.316;5.372;2022-11-03T07:51:29;4.97;;;2.75;;
73276;SDS011;61501;43.316;5.372;2022-11-03T07:59:25;6.75;;;3.25;;
73276;SDS011;61501;43.316;5.372;2022-11-03T08:04:29;6.20;;;3.33;;
73276;SDS011;61501;43.316;5.372;2022-11-03T08:06:57;6.72;;;3.30;;
73276;SDS011;61501;43.316;5.372;2022-11-03T08:09:23;5.63;;;3.13;;
73276;SDS011;61501;43.316;5.372;2022-11-03T08:11:49;7.45;;;3.47;;
73276;SDS011;61501;43.316;5.372;2022-11-03T08:14:15;8.52;;;3.80;;
73276;SDS011;61501;43.316;5.372;2022-11-03T08:16:41;6.70;;;3.72;;
73276;SDS011;61501;43.316;5.372;2022-11-03T08:19:07;7.82;;;3.70;;
73276;SDS011;61501;43.316;5.372;2022-11-03T08:21:32;5.28;;;3.80;;
73276;SDS011;61501;43.316;5.372;2022-11-03T08:23:59;9.73;;;3.83;;
73276;SDS011;61501;43.316;5.372;2022-11-03T08:26:24;11.10;;;3.38;;
73276;SDS011;61501;43.316;5.372;2022-11-03T08:28:50;8.10;;;4.00;;
73276;SDS011;61501;43.316;5.372;2022-11-03T08:31:16;8.00;;;3.80;;
73276;SDS011;61501;43.316;5.372;2022-11-03T08:33:42;7.80;;;3.42;;
73276;SDS011;61501;43.316;5.372;2022-11-03T08:36:07;7.72;;;3.33;;
73276;SDS011;61501;43.316;5.372;2022-11-03T08:38:34;5.05;;;3.25;;
73276;SDS011;61501;43.316;5.372;2022-11-03T08:41:00;10.35;;;3.72;;
73276;SDS011;61501;43.316;5.372;2022-11-03T08:43:26;6.32;;;3.53;;
73276;SDS011;61501;43.316;5.372;2022-11-03T08:45:52;6.35;;;3.33;;
73276;SDS011;61501;43.316;5.372;2022-11-03T08:48:22;4.97;;;3.03;;
73276;SDS011;61501;43.316;5.372;2022-11-03T08:50:51;4.90;;;2.85;;
73276;SDS011;61501;43.316;5.372;2022-11-03T08:53:18;8.02;;;3.03;;
73276;SDS011;61501;43.316;5.372;2022-11-03T08:55:44;6.40;;;3.80;;
73276;SDS011;61501;43.316;5.372;2022-11-03T08:58:10;5.18;;;3.22;;
73276;SDS011;61501;43.316;5.372;2022-11-03T09:00:36;8.65;;;3.33;;
73276;SDS011;61501;43.316;5.372;2022-11-03T09:03:02;7.00;;;3.38;;
73276;SDS011;61501;43.316;5.372;2022-11-03T09:05:27;6.57;;;3.15;;
73276;SDS011;61501;43.316;5.372;2022-11-03T09:07:53;5.88;;;3.17;;
73276;SDS011;61501;43.316;5.372;2022-11-03T09:10:19;5.50;;;3.30;;
73276;SDS011;61501;43.316;5.372;2022-11-03T09:12:44;4.53;;;3.28;;
73276;SDS011;61501;43.316;5.372;2022-11-03T09:15:10;6.13;;;3.50;;
73276;SDS011;61501;43.316;5.372;2022-11-03T09:17:36;7.10;;;3.78;;
73276;SDS011;61501;43.316;5.372;2022-11-03T09:20:02;6.80;;;3.47;;
73276;SDS011;61501;43.316;5.372;2022-11-03T09:22:29;5.03;;;3.00;;
73276;SDS011;61501;43.316;5.372;2022-11-03T09:24:54;7.10;;;3.05;;
73276;SDS011;61501;43.316;5.372;2022-11-03T09:27:20;6.22;;;3.40;;
73276;SDS011;61501;43.316;5.372;2022-11-03T09:29:46;4.95;;;3.00;;
73276;SDS011;61501;43.316;5.372;2022-11-03T09:32:11;7.57;;;2.80;;
73276;SDS011;61501;43.316;5.372;2022-11-03T09:34:37;5.95;;;2.60;;
73276;SDS011;61501;43.316;5.372;2022-11-03T09:37:03;4.95;;;2.80;;
73276;SDS011;61501;43.316;5.372;2022-11-03T09:39:28;5.82;;;3.22;;
73276;SDS011;61501;43.316;5.372;2022-11-03T09:41:54;4.95;;;2.78;;
73276;SDS011;61501;43.316;5.372;2022-11-03T09:44:22;4.38;;;2.90;;
73276;SDS011;61501;43.316;5.372;2022-11-03T09:46:48;4.78;;;2.58;;
73276;SDS011;61501;43.316;5.372;2022-11-03T09:49:15;7.15;;;3.00;;
73276;SDS011;61501;43.316;5.372;2022-11-03T09:51:42;7.38;;;2.95;;
73276;SDS011;61501;43.316;5.372;2022-11-03T09:54:10;6.30;;;3.10;;
73276;SDS011;61501;43.316;5.372;2022-11-03T09:56:38;6.13;;;3.20;;
73276;SDS011;61501;43.316;5.372;2022-11-03T09:59:17;3.75;;;2.13;;
73276;SDS011;61501;43.316;5.372;2022-11-03T10:01:44;4.82;;;2.70;;
73276;SDS011;61501;43.316;5.372;2022-11-03T10:04:13;5.80;;;2.65;;
73276;SDS011;61501;43.316;5.372;2022-11-03T10:06:41;4.30;;;2.30;;
73276;SDS011;61501;43.316;5.372;2022-11-03T10:09:16;3.75;;;2.55;;
73276;SDS011;61501;43.316;5.372;2022-11-03T10:11:43;4.50;;;2.72;;
73276;SDS011;61501;43.316;5.372;2022-11-03T10:14:11;4.32;;;2.70;;
73276;SDS011;61501;43.316;5.372;2022-11-03T10:16:39;4.95;;;2.72;;
73276;SDS011;61501;43.316;5.372;2022-11-03T10:19:15;6.93;;;2.60;;
73276;SDS011;61501;43.316;5.372;2022-11-03T10:21:42;7.30;;;2.83;;
73276;SDS011;61501;43.316;5.372;2022-11-03T10:24:11;5.72;;;2.85;;
73276;SDS011;61501;43.316;5.372;2022-11-03T10:26:47;10.35;;;3.20;;
73276;SDS011;61501;43.316;5.372;2022-11-03T10:29:17;4.22;;;3.00;;
73276;SDS011;61501;43.316;5.372;2022-11-03T10:31:49;7.53;;;3.30;;
73276;SDS011;61501;43.316;5.372;2022-11-03T10:39:45;5.80;;;2.63;;
73276;SDS011;61501;43.316;5.372;2022-11-03T10:42:15;6.68;;;3.15;;
73276;SDS011;61501;43.316;5.372;2022-11-03T10:44:41;5.22;;;2.70;;
73276;SDS011;61501;43.316;5.372;2022-11-03T10:47:09;4.78;;;2.72;;
73276;SDS011;61501;43.316;5.372;2022-11-03T10:49:47;7.38;;;3.35;;
73276;SDS011;61501;43.316;5.372;2022-11-03T10:57:13;7.35;;;5.03;;
73276;SDS011;61501;43.316;5.372;2022-11-03T10:59:39;7.90;;;5.35;;
73276;SDS011;61501;43.316;5.372;2022-11-03T11:02:16;10.65;;;5.68;;
73276;SDS011;61501;43.316;5.372;2022-11-03T11:04:47;7.70;;;4.07;;
73276;SDS011;61501;43.316;5.372;2022-11-03T11:07:23;10.63;;;4.40;;
73276;SDS011;61501;43.316;5.372;2022-11-03T11:09:53;10.95;;;4.78;;
73276;SDS011;61501;43.316;5.372;2022-11-03T11:12:23;5.53;;;3.63;;
73276;SDS011;61501;43.316;5.372;2022-11-03T11:14:56;9.10;;;4.15;;
73276;SDS011;61501;43.316;5.372;2022-11-03T11:22:43;7.72;;;3.95;;
73276;SDS011;61501;43.316;5.372;2022-11-03T11:25:09;7.32;;;3.63;;
73276;SDS011;61501;43.316;5.372;2022-11-03T11:30:01;5.78;;;3.40;;
73276;SDS011;61501;43.316;5.372;2022-11-03T11:37:52;7.05;;;3.42;;
73276;SDS011;61501;43.316;5.372;2022-11-03T11:48:33;6.47;;;3.57;;
73276;SDS011;61501;43.316;5.372;2022-11-03T11:51:00;6.55;;;2.92;;
73276;SDS011;61501;43.316;5.372;2022-11-03T11:53:26;8.00;;;3.00;;
73276;SDS011;61501;43.316;5.372;2022-11-03T11:56:02;5.10;;;3.25;;
73276;SDS011;61501;43.316;5.372;2022-11-03T12:01:29;6.88;;;3.15;;
73276;SDS011;61501;43.316;5.372;2022-11-03T12:03:58;8.15;;;3.47;;
73276;SDS011;61501;43.316;5.372;2022-11-03T12:06:33;6.38;;;3.15;;
73276;SDS011;61501;43.316;5.372;2022-11-03T12:09:07;5.20;;;3.22;;
73276;SDS011;61501;43.316;5.372;2022-11-03T12:11:52;6.63;;;3.15;;
73276;SDS011;61501;43.316;5.372;2022-11-03T12:14:20;5.75;;;3.85;;
73276;SDS011;61501;43.316;5.372;2022-11-03T12:16:47;5.60;;;3.30;;
73276;SDS011;61501;43.316;5.372;2022-11-03T12:22:00;6.68;;;3.40;;
73276;SDS011;61501;43.316;5.372;2022-11-03T12:26:55;6.40;;;3.10;;
73276;SDS011;61501;43.316;5.372;2022-11-03T12:29:21;5.35;;;3.25;;
73276;SDS011;61501;43.316;5.372;2022-11-03T12:31:47;7.65;;;3.92;;
73276;SDS011;61501;43.316;5.372;2022-11-03T12:34:13;7.88;;;4.22;;
73276;SDS011;61501;43.316;5.372;2022-11-03T12:36:39;7.30;;;3.75;;
73276;SDS011;61501;43.316;5.372;2022-11-03T12:39:04;7.55;;;4.25;;
73276;SDS011;61501;43.316;5.372;2022-11-03T12:41:30;8.20;;;3.92;;
73276;SDS011;61501;43.316;5.372;2022-11-03T12:43:55;7.10;;;3.65;;
73276;SDS011;61501;43.316;5.372;2022-11-03T12:46:21;7.88;;;3.90;;
73276;SDS011;61501;43.316;5.372;2022-11-03T12:48:47;7.72;;;3.70;;
73276;SDS011;61501;43.316;5.372;2022-11-03T12:51:14;6.13;;;3.70;;
73276;SDS011;61501;43.316;5.372;2022-11-03T12:53:41;9.93;;;4.40;;
73276;SDS011;61501;43.316;5.372;2022-11-03T12:56:08;6.75;;;4.15;;
73276;SDS011;61501;43.316;5.372;2022-11-03T12:58:34;10.27;;;4.70;;
73276;SDS011;61501;43.316;5.372;2022-11-03T13:01:00;8.98;;;4.82;;
73276;SDS011;61501;43.316;5.372;2022-11-03T13:03:26;10.98;;;4.32;;
73276;SDS011;61501;43.316;5.372;2022-11-03T13:05:51;8.93;;;3.75;;
73276;SDS011;61501;43.316;5.372;2022-11-03T13:08:17;10.13;;;4.63;;
73276;SDS011;61501;43.316;5.372;2022-11-03T13:10:43;8.32;;;4.18;;
73276;SDS011;61501;43.316;5.372;2022-11-03T13:13:09;9.25;;;3.90;;
73276;SDS011;61501;43.316;5.372;2022-11-03T13:15:34;7.53;;;4.00;;
73276;SDS011;61501;43.316;5.372;2022-11-03T13:18:01;8.77;;;4.10;;
73276;SDS011;61501;43.316;5.372;2022-11-03T13:20:27;7.68;;;4.32;;
73276;SDS011;61501;43.316;5.372;2022-11-03T13:22:53;7.75;;;4.30;;
73276;SDS011;61501;43.316;5.372;2022-11-03T13:25:18;10.50;;;4.70;;
73276;SDS011;61501;43.316;5.372;2022-11-03T13:27:44;12.18;;;4.88;;
73276;SDS011;61501;43.316;5.372;2022-11-03T13:30:10;12.70;;;5.45;;
73276;SDS011;61501;43.316;5.372;2022-11-03T13:32:36;11.68;;;5.07;;
73276;SDS011;61501;43.316;5.372;2022-11-03T13:35:02;11.93;;;4.97;;
73276;SDS011;61501;43.316;5.372;2022-11-03T13:37:28;10.85;;;4.85;;
73276;SDS011;61501;43.316;5.372;2022-11-03T13:39:53;14.65;;;5.68;;
73276;SDS011;61501;43.316;5.372;2022-11-03T13:42:19;15.93;;;6.03;;
73276;SDS011;61501;43.316;5.372;2022-11-03T13:44:45;14.85;;;5.50;;
73276;SDS011;61501;43.316;5.372;2022-11-03T13:47:10;13.75;;;5.53;;
73276;SDS011;61501;43.316;5.372;2022-11-03T13:49:36;14.85;;;5.97;;
73276;SDS011;61501;43.316;5.372;2022-11-03T13:52:02;15.85;;;5.97;;
73276;SDS011;61501;43.316;5.372;2022-11-03T13:54:28;13.77;;;5.45;;
73276;SDS011;61501;43.316;5.372;2022-11-03T13:56:54;13.70;;;5.13;;
73276;SDS011;61501;43.316;5.372;2022-11-03T13:59:19;17.20;;;5.88;;
73276;SDS011;61501;43.316;5.372;2022-11-03T14:01:45;19.27;;;6.38;;
73276;SDS011;61501;43.316;5.372;2022-11-03T14:04:11;17.83;;;5.72;;
73276;SDS011;61501;43.316;5.372;2022-11-03T14:06:36;14.95;;;6.13;;
73276;SDS011;61501;43.316;5.372;2022-11-03T14:09:02;15.38;;;6.40;;
73276;SDS011;61501;43.316;5.372;2022-11-03T14:11:27;17.88;;;6.82;;
73276;SDS011;61501;43.316;5.372;2022-11-03T14:14:12;16.67;;;6.72;;
73276;SDS011;61501;43.316;5.372;2022-11-03T14:16:37;15.80;;;6.50;;
73276;SDS011;61501;43.316;5.372;2022-11-03T14:19:03;15.50;;;6.82;;
73276;SDS011;61501;43.316;5.372;2022-11-03T14:21:30;19.17;;;7.05;;
73276;SDS011;61501;43.316;5.372;2022-11-03T14:23:55;18.40;;;6.82;;
73276;SDS011;61501;43.316;5.372;2022-11-03T14:26:21;18.15;;;7.10;;
73276;SDS011;61501;43.316;5.372;2022-11-03T14:28:47;17.75;;;7.45;;
73276;SDS011;61501;43.316;5.372;2022-11-03T14:31:13;17.00;;;6.63;;
73276;SDS011;61501;43.316;5.372;2022-11-03T14:33:38;13.38;;;6.47;;
73276;SDS011;61501;43.316;5.372;2022-11-03T14:36:04;24.17;;;7.30;;
73276;SDS011;61501;43.316;5.372;2022-11-03T14:38:29;19.55;;;8.07;;
73276;SDS011;61501;43.316;5.372;2022-11-03T14:40:55;22.42;;;7.55;;
73276;SDS011;61501;43.316;5.372;2022-11-03T14:43:39;16.52;;;7.47;;
73276;SDS011;61501;43.316;5.372;2022-11-03T14:46:05;15.55;;;6.63;;
73276;SDS011;61501;43.316;5.372;2022-11-03T14:48:30;13.90;;;6.90;;
73276;SDS011;61501;43.316;5.372;2022-11-03T14:50:56;21.70;;;7.47;;
73276;SDS011;61501;43.316;5.372;2022-11-03T14:53:21;16.95;;;7.78;;
73276;SDS011;61501;43.316;5.372;2022-11-03T14:55:47;17.52;;;7.72;;
73276;SDS011;61501;43.316;5.372;2022-11-03T14:58:13;13.68;;;6.70;;
73276;SDS011;61501;43.316;5.372;2022-11-03T15:00:38;17.10;;;7.32;;
73276;SDS011;61501;43.316;5.372;2022-11-03T15:03:04;20.90;;;7.78;;
73276;SDS011;61501;43.316;5.372;2022-11-03T15:05:29;15.60;;;7.72;;
73276;SDS011;61501;43.316;5.372;2022-11-03T15:08:11;18.23;;;7.75;;
73276;SDS011;61501;43.316;5.372;2022-11-03T15:10:37;20.15;;;7.82;;
73276;SDS011;61501;43.316;5.372;2022-11-03T15:13:03;20.35;;;8.65;;
73276;SDS011;61501;43.316;5.372;2022-11-03T15:15:28;18.42;;;7.60;;
73276;SDS011;61501;43.316;5.372;2022-11-03T15:17:54;20.33;;;8.13;;
73276;SDS011;61501;43.316;5.372;2022-11-03T15:20:20;17.63;;;8.20;;
73276;SDS011;61501;43.316;5.372;2022-11-03T15:22:45;17.80;;;8.57;;
73276;SDS011;61501;43.316;5.372;2022-11-03T15:25:11;16.70;;;7.55;;
73276;SDS011;61501;43.316;5.372;2022-11-03T15:27:36;19.90;;;8.80;;
73276;SDS011;61501;43.316;5.372;2022-11-03T15:30:03;24.35;;;8.88;;
73276;SDS011;61501;43.316;5.372;2022-11-03T15:32:32;23.80;;;8.60;;
73276;SDS011;61501;43.316;5.372;2022-11-03T15:34:58;23.00;;;8.77;;
73276;SDS011;61501;43.316;5.372;2022-11-03T15:37:24;22.70;;;9.10;;
73276;SDS011;61501;43.316;5.372;2022-11-03T15:39:49;21.90;;;8.77;;
73276;SDS011;61501;43.316;5.372;2022-11-03T15:42:15;17.30;;;8.82;;
73276;SDS011;61501;43.316;5.372;2022-11-03T15:44:41;20.45;;;9.18;;
73276;SDS011;61501;43.316;5.372;2022-11-03T15:47:06;22.48;;;9.75;;
73276;SDS011;61501;43.316;5.372;2022-11-03T15:49:32;23.02;;;10.20;;
73276;SDS011;61501;43.316;5.372;2022-11-03T15:51:58;21.77;;;10.60;;
73276;SDS011;61501;43.316;5.372;2022-11-03T15:54:23;21.90;;;10.57;;
73276;SDS011;61501;43.316;5.372;2022-11-03T15:56:49;19.67;;;10.88;;
73276;SDS011;61501;43.316;5.372;2022-11-03T15:59:14;21.45;;;10.90;;
73276;SDS011;61501;43.316;5.372;2022-11-03T16:01:40;27.80;;;11.70;;
73276;SDS011;61501;43.316;5.372;2022-11-03T16:04:06;23.92;;;11.75;;
73276;SDS011;61501;43.316;5.372;2022-11-03T16:06:31;24.73;;;11.65;;
73276;SDS011;61501;43.316;5.372;2022-11-03T16:08:57;27.65;;;12.90;;
73276;SDS011;61501;43.316;5.372;2022-11-03T16:11:23;25.58;;;11.13;;
73276;SDS011;61501;43.316;5.372;2022-11-03T16:13:48;23.05;;;11.40;;
73276;SDS011;61501;43.316;5.372;2022-11-03T16:16:14;24.15;;;10.88;;
73276;SDS011;61501;43.316;5.372;2022-11-03T16:18:40;20.83;;;11.13;;